Fillmore, CA (93015)

5:16 AM PDT on August 25, 2016 (GMT -0700)
North / East Fillmore | | Change Station

Elev 535 ft 34.41 °N, 118.92 °W | Updated 9 seconds ago

Clear
Clear
57.7 °F
Feels Like 57.7 °F
N
0.0
Wind Variable Wind from SW
Gusts 0.0 mph

Today
High -- | Low -- °F
--% Chance of Precip.
Yesterday
High -- | Low -- °F
Precip. -- in
Pressure 29.96 in
Visibility 8.0 miles
Clouds Clear
Dew Point 53 °F
Humidity 83%
Rainfall 0.00 in
Snow Depth Not available.
6:24 AM 7:30 PM
Last Quarter, 46% visible
METAR KCMA 251155Z 00000KT 8SM CLR 16/13 A2993 RMK AO2 SLP143 T01560133 10172 20150 58000
Pressure 29.96 in
Visibility 8.0 miles
Clouds Clear
Dew Point 53 °F
Humidity 83%
Rainfall 0.00 in
Snow Depth Not available.
6:24 AM 7:30 PM
Last Quarter, 46% visible
METAR KCMA 251155Z 00000KT 8SM CLR 16/13 A2993 RMK AO2 SLP143 T01560133 10172 20150 58000

10-Day Weather Forecast

Almanac

Astronomy

Aug. 25, 2016 Rise Set
Actual Time
Civil Twilight
Nautical Twilight
Astronomical Twilight
Moon
Length of Visible Light
Length of Day
Tomorrow will be .
, % of the Moon is Illuminated

Today's Extremes

State Highs State Lows

Community

WunderPhotos

Upload Photos

1,934,833 photos uploaded!

WunderBlog® & News

Nearby

Air Quality

  Air Quality AQ Index Pollutant
Not available.

Snow Depth

Station Depth Elevation

Earthquake Activity

City Distance Mag. Time & Date
Minimum magnitude displayed is 2.5.

Coastal Water Temperatures

Place Temperature

Stations

Nearby Weather Stations

Station Location Temp. Windchill Dew Point Humidity Wind Precip. Elev Updated Type
                   

Watches & Warnings

There are currently no watches in effect.